sensor_id;sensor_type;location;lat;lon;timestamp;temperature;humidity
26909;DHT22;14477;51.038;4.588;2024-02-16T00:00:08;15.10;99.90
26909;DHT22;14477;51.038;4.588;2024-02-16T00:02:37;15.10;99.90
26909;DHT22;14477;51.038;4.588;2024-02-16T00:05:03;15.10;99.90
26909;DHT22;14477;51.038;4.588;2024-02-16T00:07:30;15.00;99.90
26909;DHT22;14477;51.038;4.588;2024-02-16T00:09:56;15.10;99.90
26909;DHT22;14477;51.038;4.588;2024-02-16T00:12:22;15.00;99.90
26909;DHT22;14477;51.038;4.588;2024-02-16T00:14:48;15.00;99.90
26909;DHT22;14477;51.038;4.588;2024-02-16T00:17:14;15.00;99.90
26909;DHT22;14477;51.038;4.588;2024-02-16T00:19:40;14.90;99.90
26909;DHT22;14477;51.038;4.588;2024-02-16T00:22:05;14.80;99.90
26909;DHT22;14477;51.038;4.588;2024-02-16T00:24:33;14.90;99.90
26909;DHT22;14477;51.038;4.588;2024-02-16T00:26:59;14.90;99.90
26909;DHT22;14477;51.038;4.588;2024-02-16T00:29:26;14.90;99.90
26909;DHT22;14477;51.038;4.588;2024-02-16T00:31:51;14.90;99.90
26909;DHT22;14477;51.038;4.588;2024-02-16T00:34:17;14.80;99.90
26909;DHT22;14477;51.038;4.588;2024-02-16T00:36:43;14.90;99.90
26909;DHT22;14477;51.038;4.588;2024-02-16T00:39:09;14.90;99.90
26909;DHT22;14477;51.038;4.588;2024-02-16T00:41:35;14.80;99.90
26909;DHT22;14477;51.038;4.588;2024-02-16T00:44:01;14.80;99.90
26909;DHT22;14477;51.038;4.588;2024-02-16T00:46:27;14.80;99.90
26909;DHT22;14477;51.038;4.588;2024-02-16T00:48:52;14.80;99.90
26909;DHT22;14477;51.038;4.588;2024-02-16T00:51:19;14.80;99.90
26909;DHT22;14477;51.038;4.588;2024-02-16T00:53:46;14.70;99.90
26909;DHT22;14477;51.038;4.588;2024-02-16T00:56:12;14.70;99.90
26909;DHT22;14477;51.038;4.588;2024-02-16T00:58:40;14.80;99.90
26909;DHT22;14477;51.038;4.588;2024-02-16T01:01:08;14.80;99.90
26909;DHT22;14477;51.038;4.588;2024-02-16T01:03:37;14.80;99.90
26909;DHT22;14477;51.038;4.588;2024-02-16T01:06:03;14.80;99.90
26909;DHT22;14477;51.038;4.588;2024-02-16T01:08:31;14.80;99.90
26909;DHT22;14477;51.038;4.588;2024-02-16T01:10:57;17.30;99.90
26909;DHT22;14477;51.038;4.588;2024-02-16T01:13:23;14.80;99.90
26909;DHT22;14477;51.038;4.588;2024-02-16T01:15:48;14.90;99.90
26909;DHT22;14477;51.038;4.588;2024-02-16T01:18:14;14.90;99.90
26909;DHT22;14477;51.038;4.588;2024-02-16T01:20:41;14.90;99.90
26909;DHT22;14477;51.038;4.588;2024-02-16T01:23:07;14.90;99.90
26909;DHT22;14477;51.038;4.588;2024-02-16T01:25:32;14.90;99.90
26909;DHT22;14477;51.038;4.588;2024-02-16T01:27:58;15.00;99.90
26909;DHT22;14477;51.038;4.588;2024-02-16T01:30:24;15.00;99.90
26909;DHT22;14477;51.038;4.588;2024-02-16T01:32:50;15.00;99.90
26909;DHT22;14477;51.038;4.588;2024-02-16T01:35:16;15.00;99.90
26909;DHT22;14477;51.038;4.588;2024-02-16T01:37:42;15.00;99.90
26909;DHT22;14477;51.038;4.588;2024-02-16T01:40:09;15.00;99.90
26909;DHT22;14477;51.038;4.588;2024-02-16T01:42:40;15.00;99.90
26909;DHT22;14477;51.038;4.588;2024-02-16T01:45:08;15.00;99.90
26909;DHT22;14477;51.038;4.588;2024-02-16T01:47:35;15.00;99.90
26909;DHT22;14477;51.038;4.588;2024-02-16T01:50:02;15.00;99.90
26909;DHT22;14477;51.038;4.588;2024-02-16T01:52:28;15.00;99.90
26909;DHT22;14477;51.038;4.588;2024-02-16T01:54:57;15.00;99.90
26909;DHT22;14477;51.038;4.588;2024-02-16T01:57:23;15.00;99.90
26909;DHT22;14477;51.038;4.588;2024-02-16T01:59:49;15.00;99.90
26909;DHT22;14477;51.038;4.588;2024-02-16T02:02:15;15.10;99.90
26909;DHT22;14477;51.038;4.588;2024-02-16T02:04:41;15.10;99.90
26909;DHT22;14477;51.038;4.588;2024-02-16T02:07:14;15.10;99.90
26909;DHT22;14477;51.038;4.588;2024-02-16T02:09:41;15.10;99.90
26909;DHT22;14477;51.038;4.588;2024-02-16T02:12:08;15.10;99.90
26909;DHT22;14477;51.038;4.588;2024-02-16T02:14:35;15.10;99.90
26909;DHT22;14477;51.038;4.588;2024-02-16T02:17:01;15.20;99.90
26909;DHT22;14477;51.038;4.588;2024-02-16T02:19:27;15.20;99.90
26909;DHT22;14477;51.038;4.588;2024-02-16T02:21:52;15.20;99.90
26909;DHT22;14477;51.038;4.588;2024-02-16T02:24:18;15.20;99.90
26909;DHT22;14477;51.038;4.588;2024-02-16T02:26:46;15.20;99.90
26909;DHT22;14477;51.038;4.588;2024-02-16T02:29:11;15.20;99.90
26909;DHT22;14477;51.038;4.588;2024-02-16T02:31:37;15.20;99.90
26909;DHT22;14477;51.038;4.588;2024-02-16T02:34:03;15.20;99.90
26909;DHT22;14477;51.038;4.588;2024-02-16T02:36:31;15.20;99.90
26909;DHT22;14477;51.038;4.588;2024-02-16T02:38:57;15.20;99.90
26909;DHT22;14477;51.038;4.588;2024-02-16T02:41:23;15.20;99.90
26909;DHT22;14477;51.038;4.588;2024-02-16T02:43:49;15.20;99.90
26909;DHT22;14477;51.038;4.588;2024-02-16T02:46:15;15.20;99.90
26909;DHT22;14477;51.038;4.588;2024-02-16T02:48:43;15.20;99.90
26909;DHT22;14477;51.038;4.588;2024-02-16T02:51:09;15.20;99.90
26909;DHT22;14477;51.038;4.588;2024-02-16T02:53:35;15.20;99.90
26909;DHT22;14477;51.038;4.588;2024-02-16T02:56:02;15.20;99.90
26909;DHT22;14477;51.038;4.588;2024-02-16T02:58:28;15.20;99.90
26909;DHT22;14477;51.038;4.588;2024-02-16T03:00:54;15.20;99.90
26909;DHT22;14477;51.038;4.588;2024-02-16T03:03:21;15.20;99.90
26909;DHT22;14477;51.038;4.588;2024-02-16T03:05:47;15.20;99.90
26909;DHT22;14477;51.038;4.588;2024-02-16T03:08:12;15.90;99.90
26909;DHT22;14477;51.038;4.588;2024-02-16T03:10:38;15.20;99.90
26909;DHT22;14477;51.038;4.588;2024-02-16T03:13:04;15.20;99.90
26909;DHT22;14477;51.038;4.588;2024-02-16T03:15:32;15.20;99.90
26909;DHT22;14477;51.038;4.588;2024-02-16T03:17:59;15.20;99.90
26909;DHT22;14477;51.038;4.588;2024-02-16T03:20:25;15.20;99.90
26909;DHT22;14477;51.038;4.588;2024-02-16T03:22:50;15.20;99.90
26909;DHT22;14477;51.038;4.588;2024-02-16T03:25:16;15.20;99.90
26909;DHT22;14477;51.038;4.588;2024-02-16T03:27:42;15.20;99.90
26909;DHT22;14477;51.038;4.588;2024-02-16T03:30:08;15.20;99.90
26909;DHT22;14477;51.038;4.588;2024-02-16T03:32:35;15.20;99.90
26909;DHT22;14477;51.038;4.588;2024-02-16T03:35:01;15.10;99.90
26909;DHT22;14477;51.038;4.588;2024-02-16T03:37:27;15.20;99.90
26909;DHT22;14477;51.038;4.588;2024-02-16T03:39:53;15.20;99.90
26909;DHT22;14477;51.038;4.588;2024-02-16T03:42:19;15.20;99.90
26909;DHT22;14477;51.038;4.588;2024-02-16T03:44:45;15.20;99.90
26909;DHT22;14477;51.038;4.588;2024-02-16T03:47:11;15.20;99.90
26909;DHT22;14477;51.038;4.588;2024-02-16T03:49:38;15.20;99.90
26909;DHT22;14477;51.038;4.588;2024-02-16T03:52:04;15.20;99.90
26909;DHT22;14477;51.038;4.588;2024-02-16T03:54:30;15.20;99.90
26909;DHT22;14477;51.038;4.588;2024-02-16T03:56:56;15.20;99.90
26909;DHT22;14477;51.038;4.588;2024-02-16T03:59:23;15.20;99.90
26909;DHT22;14477;51.038;4.588;2024-02-16T04:01:49;15.20;99.90
26909;DHT22;14477;51.038;4.588;2024-02-16T04:04:15;15.20;99.90
26909;DHT22;14477;51.038;4.588;2024-02-16T04:06:41;16.40;99.90
26909;DHT22;14477;51.038;4.588;2024-02-16T04:09:07;15.20;99.90
26909;DHT22;14477;51.038;4.588;2024-02-16T04:11:34;15.30;99.90
26909;DHT22;14477;51.038;4.588;2024-02-16T04:14:00;15.30;99.90
26909;DHT22;14477;51.038;4.588;2024-02-16T04:16:27;15.80;99.90
26909;DHT22;14477;51.038;4.588;2024-02-16T04:18:52;15.30;99.90
26909;DHT22;14477;51.038;4.588;2024-02-16T04:21:18;15.40;99.90
26909;DHT22;14477;51.038;4.588;2024-02-16T04:23:44;15.40;99.90
26909;DHT22;14477;51.038;4.588;2024-02-16T04:26:10;15.40;99.90
26909;DHT22;14477;51.038;4.588;2024-02-16T04:28:36;15.50;99.90
26909;DHT22;14477;51.038;4.588;2024-02-16T04:31:02;15.50;99.90
26909;DHT22;14477;51.038;4.588;2024-02-16T04:33:28;15.50;99.90
26909;DHT22;14477;51.038;4.588;2024-02-16T04:35:53;15.50;99.90
26909;DHT22;14477;51.038;4.588;2024-02-16T04:38:19;15.50;99.90
26909;DHT22;14477;51.038;4.588;2024-02-16T04:40:45;15.50;99.90
26909;DHT22;14477;51.038;4.588;2024-02-16T04:43:11;15.60;99.90
26909;DHT22;14477;51.038;4.588;2024-02-16T04:45:37;15.60;99.90
26909;DHT22;14477;51.038;4.588;2024-02-16T04:48:07;15.60;99.90
26909;DHT22;14477;51.038;4.588;2024-02-16T04:50:33;15.60;99.90
26909;DHT22;14477;51.038;4.588;2024-02-16T04:52:59;15.60;99.90
26909;DHT22;14477;51.038;4.588;2024-02-16T04:55:27;15.60;99.90
26909;DHT22;14477;51.038;4.588;2024-02-16T04:57:55;15.60;99.90
26909;DHT22;14477;51.038;4.588;2024-02-16T05:00:20;15.60;99.90
26909;DHT22;14477;51.038;4.588;2024-02-16T05:02:46;15.60;99.90
26909;DHT22;14477;51.038;4.588;2024-02-16T05:05:12;15.60;99.90
26909;DHT22;14477;51.038;4.588;2024-02-16T05:07:38;15.60;99.90
26909;DHT22;14477;51.038;4.588;2024-02-16T05:10:08;15.50;99.90
26909;DHT22;14477;51.038;4.588;2024-02-16T05:12:34;15.50;99.90
26909;DHT22;14477;51.038;4.588;2024-02-16T05:15:00;15.50;99.90
26909;DHT22;14477;51.038;4.588;2024-02-16T05:17:25;15.50;99.90
26909;DHT22;14477;51.038;4.588;2024-02-16T05:19:52;15.50;99.90
26909;DHT22;14477;51.038;4.588;2024-02-16T05:22:19;17.10;99.90
26909;DHT22;14477;51.038;4.588;2024-02-16T05:24:47;15.50;99.90
26909;DHT22;14477;51.038;4.588;2024-02-16T05:27:13;15.50;99.90
26909;DHT22;14477;51.038;4.588;2024-02-16T05:29:40;15.50;99.90
26909;DHT22;14477;51.038;4.588;2024-02-16T05:32:06;15.40;99.90
26909;DHT22;14477;51.038;4.588;2024-02-16T05:34:32;15.40;99.90
26909;DHT22;14477;51.038;4.588;2024-02-16T05:37:06;15.40;99.90
26909;DHT22;14477;51.038;4.588;2024-02-16T05:39:38;15.40;99.90
26909;DHT22;14477;51.038;4.588;2024-02-16T05:42:20;15.50;99.90
26909;DHT22;14477;51.038;4.588;2024-02-16T05:44:47;15.40;99.90
26909;DHT22;14477;51.038;4.588;2024-02-16T05:47:15;15.40;99.90
26909;DHT22;14477;51.038;4.588;2024-02-16T05:49:41;15.40;99.90
26909;DHT22;14477;51.038;4.588;2024-02-16T05:52:07;15.30;99.90
26909;DHT22;14477;51.038;4.588;2024-02-16T05:54:46;15.50;99.90
26909;DHT22;14477;51.038;4.588;2024-02-16T05:57:13;15.40;99.90
26909;DHT22;14477;51.038;4.588;2024-02-16T05:59:39;15.40;99.90
26909;DHT22;14477;51.038;4.588;2024-02-16T06:02:05;15.40;99.90
26909;DHT22;14477;51.038;4.588;2024-02-16T06:04:34;15.40;99.90
26909;DHT22;14477;51.038;4.588;2024-02-16T06:07:00;15.40;99.90
26909;DHT22;14477;51.038;4.588;2024-02-16T06:09:26;15.40;99.90
26909;DHT22;14477;51.038;4.588;2024-02-16T06:11:51;15.40;99.90
26909;DHT22;14477;51.038;4.588;2024-02-16T06:14:17;15.40;99.90
26909;DHT22;14477;51.038;4.588;2024-02-16T06:16:43;15.40;99.90
26909;DHT22;14477;51.038;4.588;2024-02-16T06:19:09;15.30;99.90
26909;DHT22;14477;51.038;4.588;2024-02-16T06:21:38;15.40;99.90
26909;DHT22;14477;51.038;4.588;2024-02-16T06:24:04;15.40;99.90
26909;DHT22;14477;51.038;4.588;2024-02-16T06:26:30;15.40;99.90
26909;DHT22;14477;51.038;4.588;2024-02-16T06:28:56;15.50;99.90
26909;DHT22;14477;51.038;4.588;2024-02-16T06:31:21;15.40;99.90
26909;DHT22;14477;51.038;4.588;2024-02-16T06:33:47;15.50;99.90
26909;DHT22;14477;51.038;4.588;2024-02-16T06:36:13;15.50;99.90
26909;DHT22;14477;51.038;4.588;2024-02-16T06:38:38;15.60;99.90
26909;DHT22;14477;51.038;4.588;2024-02-16T06:41:04;15.60;99.90
26909;DHT22;14477;51.038;4.588;2024-02-16T06:43:30;15.70;99.90
26909;DHT22;14477;51.038;4.588;2024-02-16T06:45:56;15.70;99.90
26909;DHT22;14477;51.038;4.588;2024-02-16T06:48:22;15.80;99.90
26909;DHT22;14477;51.038;4.588;2024-02-16T06:50:48;15.80;99.90
26909;DHT22;14477;51.038;4.588;2024-02-16T06:53:14;15.90;99.90
26909;DHT22;14477;51.038;4.588;2024-02-16T06:55:40;15.90;99.90
26909;DHT22;14477;51.038;4.588;2024-02-16T06:58:06;16.00;99.90
26909;DHT22;14477;51.038;4.588;2024-02-16T07:00:31;16.00;99.90
26909;DHT22;14477;51.038;4.588;2024-02-16T07:02:57;16.00;99.90
26909;DHT22;14477;51.038;4.588;2024-02-16T07:05:23;16.00;99.90
26909;DHT22;14477;51.038;4.588;2024-02-16T07:07:49;16.00;99.90
26909;DHT22;14477;51.038;4.588;2024-02-16T07:10:15;16.00;99.90
26909;DHT22;14477;51.038;4.588;2024-02-16T07:12:41;16.00;99.90
26909;DHT22;14477;51.038;4.588;2024-02-16T07:15:08;16.00;99.90
26909;DHT22;14477;51.038;4.588;2024-02-16T07:17:34;16.00;99.90
26909;DHT22;14477;51.038;4.588;2024-02-16T07:20:00;16.00;99.90
26909;DHT22;14477;51.038;4.588;2024-02-16T07:22:29;15.90;99.90
26909;DHT22;14477;51.038;4.588;2024-02-16T07:24:55;15.90;99.90
26909;DHT22;14477;51.038;4.588;2024-02-16T07:27:20;15.90;99.90
26909;DHT22;14477;51.038;4.588;2024-02-16T07:29:46;15.80;99.90
26909;DHT22;14477;51.038;4.588;2024-02-16T07:32:12;15.80;99.90
26909;DHT22;14477;51.038;4.588;2024-02-16T07:34:38;15.80;99.90
26909;DHT22;14477;51.038;4.588;2024-02-16T07:37:04;15.30;99.90
26909;DHT22;14477;51.038;4.588;2024-02-16T07:39:30;15.70;99.90
26909;DHT22;14477;51.038;4.588;2024-02-16T07:41:56;15.70;99.90
26909;DHT22;14477;51.038;4.588;2024-02-16T07:44:21;15.70;99.90
26909;DHT22;14477;51.038;4.588;2024-02-16T07:46:47;15.70;99.90
26909;DHT22;14477;51.038;4.588;2024-02-16T07:49:15;15.70;99.90
26909;DHT22;14477;51.038;4.588;2024-02-16T07:51:41;15.70;99.90
26909;DHT22;14477;51.038;4.588;2024-02-16T07:54:07;15.80;99.90
26909;DHT22;14477;51.038;4.588;2024-02-16T07:56:33;15.80;99.90
26909;DHT22;14477;51.038;4.588;2024-02-16T07:58:59;15.80;99.90
26909;DHT22;14477;51.038;4.588;2024-02-16T08:01:25;15.80;99.90
26909;DHT22;14477;51.038;4.588;2024-02-16T08:03:51;15.80;99.90
26909;DHT22;14477;51.038;4.588;2024-02-16T08:06:18;15.80;99.90
26909;DHT22;14477;51.038;4.588;2024-02-16T08:08:49;15.80;99.90
26909;DHT22;14477;51.038;4.588;2024-02-16T08:11:14;15.90;99.90
26909;DHT22;14477;51.038;4.588;2024-02-16T08:13:40;15.90;99.90
26909;DHT22;14477;51.038;4.588;2024-02-16T08:16:06;15.90;99.90
26909;DHT22;14477;51.038;4.588;2024-02-16T08:18:33;15.90;99.90
26909;DHT22;14477;51.038;4.588;2024-02-16T08:20:59;16.00;99.90
26909;DHT22;14477;51.038;4.588;2024-02-16T08:23:25;16.00;99.90
26909;DHT22;14477;51.038;4.588;2024-02-16T08:25:51;16.00;99.90
26909;DHT22;14477;51.038;4.588;2024-02-16T08:28:16;16.10;99.90
26909;DHT22;14477;51.038;4.588;2024-02-16T08:30:43;16.10;99.90
26909;DHT22;14477;51.038;4.588;2024-02-16T08:33:12;16.20;99.90
26909;DHT22;14477;51.038;4.588;2024-02-16T08:35:38;16.10;99.90
26909;DHT22;14477;51.038;4.588;2024-02-16T08:38:04;16.20;99.90
26909;DHT22;14477;51.038;4.588;2024-02-16T08:40:30;16.20;99.90
26909;DHT22;14477;51.038;4.588;2024-02-16T08:42:56;16.20;99.90
26909;DHT22;14477;51.038;4.588;2024-02-16T08:45:21;16.30;99.90
26909;DHT22;14477;51.038;4.588;2024-02-16T08:47:47;16.30;99.90
26909;DHT22;14477;51.038;4.588;2024-02-16T08:50:13;16.30;99.90
26909;DHT22;14477;51.038;4.588;2024-02-16T08:52:39;16.30;99.90
26909;DHT22;14477;51.038;4.588;2024-02-16T08:55:05;16.30;99.90
26909;DHT22;14477;51.038;4.588;2024-02-16T08:57:34;16.30;99.90
26909;DHT22;14477;51.038;4.588;2024-02-16T09:00:00;16.30;99.90
26909;DHT22;14477;51.038;4.588;2024-02-16T09:02:25;16.30;99.90
26909;DHT22;14477;51.038;4.588;2024-02-16T09:04:51;16.30;99.90
26909;DHT22;14477;51.038;4.588;2024-02-16T09:07:17;16.30;99.90
26909;DHT22;14477;51.038;4.588;2024-02-16T09:09:42;16.30;99.90
26909;DHT22;14477;51.038;4.588;2024-02-16T09:12:09;16.30;99.90
26909;DHT22;14477;51.038;4.588;2024-02-16T09:14:34;16.30;99.90
26909;DHT22;14477;51.038;4.588;2024-02-16T09:17:00;16.30;99.90
26909;DHT22;14477;51.038;4.588;2024-02-16T09:19:26;16.30;99.90
26909;DHT22;14477;51.038;4.588;2024-02-16T09:21:52;16.20;99.90
26909;DHT22;14477;51.038;4.588;2024-02-16T09:24:19;16.20;99.90
26909;DHT22;14477;51.038;4.588;2024-02-16T09:26:45;16.20;99.90
26909;DHT22;14477;51.038;4.588;2024-02-16T09:29:13;16.20;99.90
26909;DHT22;14477;51.038;4.588;2024-02-16T09:31:42;16.10;99.90
26909;DHT22;14477;51.038;4.588;2024-02-16T09:34:08;16.10;99.90
26909;DHT22;14477;51.038;4.588;2024-02-16T09:36:34;16.10;99.90
26909;DHT22;14477;51.038;4.588;2024-02-16T09:39:01;16.10;99.90
26909;DHT22;14477;51.038;4.588;2024-02-16T09:41:27;16.00;99.90
26909;DHT22;14477;51.038;4.588;2024-02-16T09:43:54;16.00;99.90
26909;DHT22;14477;51.038;4.588;2024-02-16T09:46:21;15.90;99.90
26909;DHT22;14477;51.038;4.588;2024-02-16T09:48:49;15.90;99.90
26909;DHT22;14477;51.038;4.588;2024-02-16T09:51:18;15.80;99.90
26909;DHT22;14477;51.038;4.588;2024-02-16T09:53:50;15.80;99.90
26909;DHT22;14477;51.038;4.588;2024-02-16T09:56:20;15.70;99.90
26909;DHT22;14477;51.038;4.588;2024-02-16T09:58:46;15.70;99.90
26909;DHT22;14477;51.038;4.588;2024-02-16T10:01:19;15.70;99.90
26909;DHT22;14477;51.038;4.588;2024-02-16T10:03:46;15.70;99.90
26909;DHT22;14477;51.038;4.588;2024-02-16T10:06:12;15.70;99.90
26909;DHT22;14477;51.038;4.588;2024-02-16T10:08:53;15.70;99.90
26909;DHT22;14477;51.038;4.588;2024-02-16T10:11:21;15.70;99.90
26909;DHT22;14477;51.038;4.588;2024-02-16T10:14:03;15.70;99.90
26909;DHT22;14477;51.038;4.588;2024-02-16T10:16:30;15.70;99.90
26909;DHT22;14477;51.038;4.588;2024-02-16T10:18:56;15.70;99.90
26909;DHT22;14477;51.038;4.588;2024-02-16T10:21:26;15.70;99.90
26909;DHT22;14477;51.038;4.588;2024-02-16T10:24:00;15.80;99.90
26909;DHT22;14477;51.038;4.588;2024-02-16T10:26:31;15.80;99.90
26909;DHT22;14477;51.038;4.588;2024-02-16T10:28:57;15.80;99.90
26909;DHT22;14477;51.038;4.588;2024-02-16T10:31:26;15.80;99.90
26909;DHT22;14477;51.038;4.588;2024-02-16T10:34:05;15.90;99.90
26909;DHT22;14477;51.038;4.588;2024-02-16T10:36:38;15.90;99.90
26909;DHT22;14477;51.038;4.588;2024-02-16T10:39:05;15.90;99.90
26909;DHT22;14477;51.038;4.588;2024-02-16T10:41:36;15.90;99.90
26909;DHT22;14477;51.038;4.588;2024-02-16T10:44:03;16.00;99.90
26909;DHT22;14477;51.038;4.588;2024-02-16T10:46:30;15.90;99.90
26909;DHT22;14477;51.038;4.588;2024-02-16T10:48:56;16.00;99.90
26909;DHT22;14477;51.038;4.588;2024-02-16T10:51:30;16.00;99.90
26909;DHT22;14477;51.038;4.588;2024-02-16T10:53:58;16.00;99.90
26909;DHT22;14477;51.038;4.588;2024-02-16T10:56:35;16.00;99.90
26909;DHT22;14477;51.038;4.588;2024-02-16T10:59:07;16.00;99.90
26909;DHT22;14477;51.038;4.588;2024-02-16T11:01:38;15.90;99.90
26909;DHT22;14477;51.038;4.588;2024-02-16T11:04:06;15.90;99.90
26909;DHT22;14477;51.038;4.588;2024-02-16T11:09:27;15.90;99.90
26909;DHT22;14477;51.038;4.588;2024-02-16T11:11:54;15.90;99.90
26909;DHT22;14477;51.038;4.588;2024-02-16T11:14:22;15.90;99.90
26909;DHT22;14477;51.038;4.588;2024-02-16T11:16:49;15.90;99.90
26909;DHT22;14477;51.038;4.588;2024-02-16T11:19:16;15.90;99.90
26909;DHT22;14477;51.038;4.588;2024-02-16T11:22:02;15.90;99.90
26909;DHT22;14477;51.038;4.588;2024-02-16T11:24:33;15.90;99.90
26909;DHT22;14477;51.038;4.588;2024-02-16T11:27:02;15.80;99.90
26909;DHT22;14477;51.038;4.588;2024-02-16T11:29:34;15.80;99.90
26909;DHT22;14477;51.038;4.588;2024-02-16T11:32:07;15.80;99.90
26909;DHT22;14477;51.038;4.588;2024-02-16T11:34:34;15.80;99.90
26909;DHT22;14477;51.038;4.588;2024-02-16T11:37:01;15.70;99.90
26909;DHT22;14477;51.038;4.588;2024-02-16T11:39:27;15.70;99.90
26909;DHT22;14477;51.038;4.588;2024-02-16T11:42:11;15.70;99.90
26909;DHT22;14477;51.038;4.588;2024-02-16T11:44:38;15.60;99.90
26909;DHT22;14477;51.038;4.588;2024-02-16T11:47:08;15.60;99.90
26909;DHT22;14477;51.038;4.588;2024-02-16T11:49:42;15.50;99.90
26909;DHT22;14477;51.038;4.588;2024-02-16T11:52:08;15.50;99.90
26909;DHT22;14477;51.038;4.588;2024-02-16T11:54:34;15.50;99.90
26909;DHT22;14477;51.038;4.588;2024-02-16T11:57:03;15.50;99.90
26909;DHT22;14477;51.038;4.588;2024-02-16T11:59:29;15.40;99.90
26909;DHT22;14477;51.038;4.588;2024-02-16T12:01:58;15.40;99.90
26909;DHT22;14477;51.038;4.588;2024-02-16T12:04:28;14.50;99.90
26909;DHT22;14477;51.038;4.588;2024-02-16T12:07:02;15.40;99.90
26909;DHT22;14477;51.038;4.588;2024-02-16T12:09:28;15.40;99.90
26909;DHT22;14477;51.038;4.588;2024-02-16T12:11:55;15.40;99.90
26909;DHT22;14477;51.038;4.588;2024-02-16T12:14:24;15.40;99.90
26909;DHT22;14477;51.038;4.588;2024-02-16T12:16:56;15.40;99.90
26909;DHT22;14477;51.038;4.588;2024-02-16T12:19:22;15.40;99.90
26909;DHT22;14477;51.038;4.588;2024-02-16T12:21:49;15.40;99.90
26909;DHT22;14477;51.038;4.588;2024-02-16T12:24:16;15.30;99.90
26909;DHT22;14477;51.038;4.588;2024-02-16T12:26:42;15.30;99.90
26909;DHT22;14477;51.038;4.588;2024-02-16T12:29:08;15.30;99.90
26909;DHT22;14477;51.038;4.588;2024-02-16T12:31:38;15.30;99.90
26909;DHT22;14477;51.038;4.588;2024-02-16T12:34:04;15.30;99.90
26909;DHT22;14477;51.038;4.588;2024-02-16T12:36:30;15.30;99.90
26909;DHT22;14477;51.038;4.588;2024-02-16T12:38:56;15.30;99.90
26909;DHT22;14477;51.038;4.588;2024-02-16T12:41:22;15.30;99.90
26909;DHT22;14477;51.038;4.588;2024-02-16T12:43:48;15.40;99.90
26909;DHT22;14477;51.038;4.588;2024-02-16T12:46:13;15.30;99.90
26909;DHT22;14477;51.038;4.588;2024-02-16T12:48:39;15.40;99.90
26909;DHT22;14477;51.038;4.588;2024-02-16T12:51:05;15.40;99.90
26909;DHT22;14477;51.038;4.588;2024-02-16T12:53:31;15.40;99.90
26909;DHT22;14477;51.038;4.588;2024-02-16T12:56:07;15.40;99.90
26909;DHT22;14477;51.038;4.588;2024-02-16T12:58:34;15.40;99.90
26909;DHT22;14477;51.038;4.588;2024-02-16T13:01:00;15.40;99.90
26909;DHT22;14477;51.038;4.588;2024-02-16T13:03:26;15.40;99.90
26909;DHT22;14477;51.038;4.588;2024-02-16T13:05:51;15.50;99.90
26909;DHT22;14477;51.038;4.588;2024-02-16T13:08:17;15.40;99.90
26909;DHT22;14477;51.038;4.588;2024-02-16T13:10:44;15.40;99.90
26909;DHT22;14477;51.038;4.588;2024-02-16T13:13:10;15.40;99.90
26909;DHT22;14477;51.038;4.588;2024-02-16T13:15:35;15.40;99.90
26909;DHT22;14477;51.038;4.588;2024-02-16T13:18:01;15.40;99.90
26909;DHT22;14477;51.038;4.588;2024-02-16T13:20:27;15.40;99.90
26909;DHT22;14477;51.038;4.588;2024-02-16T13:22:53;15.40;99.90
26909;DHT22;14477;51.038;4.588;2024-02-16T13:25:19;15.40;99.90
26909;DHT22;14477;51.038;4.588;2024-02-16T13:27:45;15.40;99.90
26909;DHT22;14477;51.038;4.588;2024-02-16T13:30:11;15.50;99.90
26909;DHT22;14477;51.038;4.588;2024-02-16T13:32:37;15.50;99.90
26909;DHT22;14477;51.038;4.588;2024-02-16T13:35:06;15.50;99.90
26909;DHT22;14477;51.038;4.588;2024-02-16T13:37:32;15.50;99.90
26909;DHT22;14477;51.038;4.588;2024-02-16T13:39:58;15.60;99.90
26909;DHT22;14477;51.038;4.588;2024-02-16T13:42:24;15.70;99.90
26909;DHT22;14477;51.038;4.588;2024-02-16T13:44:51;15.70;99.90
26909;DHT22;14477;51.038;4.588;2024-02-16T13:47:17;15.80;99.90
26909;DHT22;14477;51.038;4.588;2024-02-16T13:49:43;15.80;99.90
26909;DHT22;14477;51.038;4.588;2024-02-16T13:52:09;15.90;99.90
26909;DHT22;14477;51.038;4.588;2024-02-16T13:54:35;15.90;99.90
26909;DHT22;14477;51.038;4.588;2024-02-16T13:57:01;16.00;99.90
26909;DHT22;14477;51.038;4.588;2024-02-16T13:59:27;16.00;99.90
26909;DHT22;14477;51.038;4.588;2024-02-16T14:01:53;16.00;99.90
26909;DHT22;14477;51.038;4.588;2024-02-16T14:04:19;16.10;99.90
26909;DHT22;14477;51.038;4.588;2024-02-16T14:06:45;16.10;99.90
26909;DHT22;14477;51.038;4.588;2024-02-16T14:09:11;16.20;99.90
26909;DHT22;14477;51.038;4.588;2024-02-16T14:11:40;16.20;99.90
26909;DHT22;14477;51.038;4.588;2024-02-16T14:14:08;16.20;99.90
26909;DHT22;14477;51.038;4.588;2024-02-16T14:16:34;16.30;99.90
26909;DHT22;14477;51.038;4.588;2024-02-16T14:19:00;16.30;99.90
26909;DHT22;14477;51.038;4.588;2024-02-16T14:21:25;16.40;99.90
26909;DHT22;14477;51.038;4.588;2024-02-16T14:23:51;16.50;99.90
26909;DHT22;14477;51.038;4.588;2024-02-16T14:26:17;16.50;99.90
26909;DHT22;14477;51.038;4.588;2024-02-16T14:28:45;16.60;99.90
26909;DHT22;14477;51.038;4.588;2024-02-16T14:31:11;16.60;99.90
26909;DHT22;14477;51.038;4.588;2024-02-16T14:33:39;16.50;99.90
26909;DHT22;14477;51.038;4.588;2024-02-16T14:36:05;16.50;99.90
26909;DHT22;14477;51.038;4.588;2024-02-16T14:38:34;16.50;99.90
26909;DHT22;14477;51.038;4.588;2024-02-16T14:41:00;16.50;99.90
26909;DHT22;14477;51.038;4.588;2024-02-16T14:43:29;16.50;99.90
26909;DHT22;14477;51.038;4.588;2024-02-16T14:45:59;16.40;99.90
26909;DHT22;14477;51.038;4.588;2024-02-16T14:48:24;16.40;99.90
26909;DHT22;14477;51.038;4.588;2024-02-16T14:50:54;16.40;99.90
26909;DHT22;14477;51.038;4.588;2024-02-16T14:53:20;15.50;99.90
26909;DHT22;14477;51.038;4.588;2024-02-16T14:55:49;16.40;99.90
26909;DHT22;14477;51.038;4.588;2024-02-16T14:58:17;16.50;99.90
26909;DHT22;14477;51.038;4.588;2024-02-16T15:00:43;16.40;99.90
26909;DHT22;14477;51.038;4.588;2024-02-16T15:03:12;16.40;99.90
26909;DHT22;14477;51.038;4.588;2024-02-16T15:05:39;16.40;99.90
26909;DHT22;14477;51.038;4.588;2024-02-16T15:08:06;16.40;99.90
26909;DHT22;14477;51.038;4.588;2024-02-16T15:10:32;16.40;99.90
26909;DHT22;14477;51.038;4.588;2024-02-16T15:12:57;16.40;99.90
26909;DHT22;14477;51.038;4.588;2024-02-16T15:15:23;16.40;99.90
26909;DHT22;14477;51.038;4.588;2024-02-16T15:17:49;16.40;99.90
26909;DHT22;14477;51.038;4.588;2024-02-16T15:20:15;16.40;99.90
26909;DHT22;14477;51.038;4.588;2024-02-16T15:22:40;16.50;99.90
26909;DHT22;14477;51.038;4.588;2024-02-16T15:25:07;16.40;99.90
26909;DHT22;14477;51.038;4.588;2024-02-16T15:27:34;16.50;99.90
26909;DHT22;14477;51.038;4.588;2024-02-16T15:30:01;16.50;99.90